Time;durP1;ratioP1;P1;durP2;ratioP2;P2;SDS_P1;SDS_P2;PMS_P1;PMS_P2;Temp;Humidity;BMP_temperature;BMP_pressure;BME280_temperature;BME280_humidity;BME280_pressure;Samples;Min_cycle;Max_cycle;Signal;HPM_P1;HPM_P2
2021/10/21 00:01:36;;;;;;;;;;;;;;;-142.75;100.00;74830.53;5032008;28;19913;-65
2021/10/21 00:04:02;;;;;;;;;;;;;;;-142.75;100.00;74771.50;5032573;28;19921;-65
2021/10/21 00:06:27;;;;;;;;;;;;;;;-142.75;100.00;74747.91;5032749;28;19913;-65
2021/10/21 00:08:52;;;;;;;;;;;;;;;-142.75;100.00;74755.78;5032716;28;19956;-65
2021/10/21 00:11:18;;;;;;;;;;;;;;;-142.75;100.00;74728.22;5015024;28;19912;-65
2021/10/21 00:13:43;;;;;;;;;;;;;;;-142.75;100.00;74720.34;5032658;28;20361;-65
2021/10/21 00:16:09;;;;;;;;;;;;;;;-142.75;100.00;74720.34;5032429;28;19913;-65
2021/10/21 00:18:34;;;;;;;;;;;;;;;-142.75;100.00;74700.69;5032529;28;20302;-65
2021/10/21 00:20:59;;;;;;;;;;;;;;;-142.75;100.00;74700.69;5014726;28;19913;-65
2021/10/21 00:23:25;;;;;;;;;;;;;;;-142.75;100.00;74681.00;5032423;28;20465;-66
2021/10/21 00:25:50;;;;;;;;;;;;;;;-142.75;100.00;74767.56;5032294;28;20378;-64
2021/10/21 00:28:15;;;;;;;;;;;;;;;-142.75;100.00;74814.78;5031888;28;19913;-65
2021/10/21 00:30:40;;;;;;;;;;;;;;;-142.75;100.00;74873.81;5032415;28;19992;-65
2021/10/21 00:33:06;;;;;;;;;;;;;;;-142.75;100.00;74952.53;5014626;28;20004;-64
2021/10/21 00:35:31;;;;;;;;;;;;;;;-142.75;100.00;74995.81;5032114;28;20378;-65
2021/10/21 00:37:56;;;;;;;;;;;;;;;-142.75;100.00;74999.75;5032086;28;19925;-64
2021/10/21 00:40:22;;;;;;;;;;;;;;;-142.75;100.00;75031.25;5014496;28;20012;-64
2021/10/21 00:42:47;;;;;;;;;;;;;;;-142.75;100.00;75039.13;5032280;28;20556;-64
2021/10/21 00:45:13;;;;;;;;;;;;;;;-142.75;100.00;75027.31;5014092;28;19913;-64
2021/10/21 00:47:38;;;;;;;;;;;;;;;-142.75;100.00;75041.09;5031808;28;19913;-64
2021/10/21 00:50:03;;;;;;;;;;;;;;;-142.75;100.00;75048.94;5017155;22;19922;-67
2021/10/21 00:52:29;;;;;;;;;;;;;;;-142.75;100.00;75029.28;4990670;28;19917;-68
2021/10/21 00:54:54;;;;;;;;;;;;;;;-142.75;100.00;75025.34;4992353;28;20005;-68
2021/10/21 00:57:19;;;;;;;;;;;;;;;-142.75;100.00;75045.00;4992554;28;19917;-67
2021/10/21 00:59:45;;;;;;;;;;;;;;;-142.75;100.00;75041.09;4992468;28;19920;-67
2021/10/21 01:02:11;;;;;;;;;;;;;;;-142.75;100.00;75041.09;4991515;28;19920;-68
2021/10/21 01:04:36;;;;;;;;;;;;;;;-142.75;100.00;75046.97;4990264;28;20001;-66
2021/10/21 01:07:01;;;;;;;;;;;;;;;-142.75;100.00;75033.22;4992363;28;20004;-71
2021/10/21 01:09:27;;;;;;;;;;;;;;;-142.75;100.00;75039.13;5006958;28;19920;-69
2021/10/21 01:11:52;;;;;;;;;;;;;;;-142.75;100.00;75027.31;5006060;28;19926;-69
2021/10/21 01:14:18;;;;;;;;;;;;;;;-142.75;100.00;75062.72;4992082;28;19917;-68
2021/10/21 01:16:44;;;;;;;;;;;;;;;-142.75;100.00;75035.19;5001628;28;19921;-68
2021/10/21 01:19:16;;;;;;;;;;;;;;;-142.75;100.00;75048.94;5010573;28;20371;-69
2021/10/21 01:21:42;;;;;;;;;;;;;;;-142.75;100.00;75078.47;5011786;28;20369;-69
2021/10/21 01:24:07;;;;;;;;;;;;;;;-142.75;100.00;75076.50;5010114;28;20359;-70
2021/10/21 01:26:32;;;;;;;;;;;;;;;-142.75;100.00;75066.66;5011734;28;19924;-71
2021/10/21 01:28:58;;;;;;;;;;;;;;;-142.75;100.00;75064.69;5011633;28;19960;-69
2021/10/21 01:31:23;;;;;;;;;;;;;;;-142.75;100.00;75062.72;5010379;28;20429;-71
2021/10/21 01:33:48;;;;;;;;;;;;;;;-142.75;100.00;75066.66;5011331;28;19964;-67
2021/10/21 01:36:13;;;;;;;;;;;;;;;-142.75;100.00;75080.44;5011504;28;19940;-70
2021/10/21 01:38:39;;;;;;;;;;;;;;;-142.75;100.00;75088.31;5011431;28;19922;-69
2021/10/21 01:41:04;;;;;;;;;;;;;;;-142.75;100.00;75062.72;5010241;28;20011;-70
2021/10/21 01:43:29;;;;;;;;;;;;;;;-142.75;100.00;75066.66;5010200;28;19914;-69
2021/10/21 01:45:54;;;;;;;;;;;;;;;-142.75;100.00;75070.59;5011077;28;19956;-70
2021/10/21 01:48:20;;;;;;;;;;;;;;;-142.75;100.00;75068.63;5011038;28;19940;-68
2021/10/21 01:50:45;;;;;;;;;;;;;;;-142.75;100.00;75056.81;5011501;28;19983;-69
2021/10/21 01:53:11;;;;;;;;;;;;;;;-142.75;100.00;75056.81;5011329;28;20406;-69
2021/10/21 01:55:36;;;;;;;;;;;;;;;-142.75;100.00;75068.63;5011119;28;19913;-70
2021/10/21 01:58:02;;;;;;;;;;;;;;;-142.75;100.00;75090.28;5011157;28;19974;-69
2021/10/21 02:00:27;;;;;;;;;;;;;;;-142.75;100.00;75088.31;5011282;28;19913;-71
2021/10/21 02:02:52;;;;;;;;;;;;;;;-142.75;100.00;75096.19;5011563;28;20587;-69
2021/10/21 02:05:18;;;;;;;;;;;;;;;-142.75;100.00;75096.19;5006978;28;19913;-69
2021/10/21 02:07:44;;;;;;;;;;;;;;;-142.75;100.00;75090.28;5011359;28;20303;-72
2021/10/21 02:10:13;;;;;;;;;;;;;;;-142.75;100.00;75084.38;5010995;28;19925;-69
2021/10/21 02:12:38;;;;;;;;;;;;;;;-142.75;100.00;75090.28;5009913;28;20385;-69
2021/10/21 02:15:04;;;;;;;;;;;;;;;-142.75;100.00;75098.16;5010899;28;20003;-70
2021/10/21 02:17:29;;;;;;;;;;;;;;;-142.75;100.00;75094.22;5011196;28;20442;-69
2021/10/21 02:19:55;;;;;;;;;;;;;;;-142.75;100.00;75088.31;5009733;28;19913;-69
2021/10/21 02:22:20;;;;;;;;;;;;;;;-142.75;100.00;75080.44;5011164;28;19959;-69
2021/10/21 02:24:45;;;;;;;;;;;;;;;-142.75;100.00;75088.31;5013212;28;19913;-70
2021/10/21 02:27:10;;;;;;;;;;;;;;;-142.75;100.00;75086.34;5015122;28;19913;-69
2021/10/21 02:29:36;;;;;;;;;;;;;;;-142.75;100.00;75062.72;5014814;28;19914;-69
2021/10/21 02:32:01;;;;;;;;;;;;;;;-142.75;100.00;75056.81;5014987;28;19976;-69
2021/10/21 02:34:26;;;;;;;;;;;;;;;-142.75;100.00;75062.72;5014540;28;19921;-69
2021/10/21 02:36:52;;;;;;;;;;;;;;;-142.75;100.00;75045.00;5014711;28;19961;-69
2021/10/21 02:39:17;;;;;;;;;;;;;;;-142.75;100.00;75045.00;5014647;28;19921;-68
2021/10/21 02:41:42;;;;;;;;;;;;;;;-142.75;100.00;75029.28;5014665;28;19917;-70
2021/10/21 02:44:07;;;;;;;;;;;;;;;-142.75;100.00;75029.28;5014406;28;19920;-70
2021/10/21 02:46:33;;;;;;;;;;;;;;;-142.75;100.00;75029.28;5013331;28;19924;-70
2021/10/21 02:48:58;;;;;;;;;;;;;;;-142.75;100.00;75019.44;5014447;28;19913;-70
2021/10/21 02:51:23;;;;;;;;;;;;;;;-142.75;100.00;75019.44;5013410;28;21423;-70
2021/10/21 02:53:48;;;;;;;;;;;;;;;-142.75;100.00;75011.56;5013013;28;19940;-68
2021/10/21 02:56:14;;;;;;;;;;;;;;;-142.75;100.00;74999.75;5014649;28;19914;-70
2021/10/21 02:58:39;;;;;;;;;;;;;;;-142.75;100.00;75003.69;5014293;28;19996;-71
2021/10/21 03:01:04;;;;;;;;;;;;;;;-142.75;100.00;75003.69;5014387;28;19913;-70
2021/10/21 03:03:29;;;;;;;;;;;;;;;-142.75;100.00;74997.78;5006146;28;19941;-72
2021/10/21 03:05:55;;;;;;;;;;;;;;;-142.75;100.00;74987.94;5014018;28;20354;-70
2021/10/21 03:08:20;;;;;;;;;;;;;;;-142.75;100.00;74974.19;5014102;28;19929;-70
2021/10/21 03:10:45;;;;;;;;;;;;;;;-142.75;100.00;74966.31;5014135;28;19991;-70
2021/10/21 03:13:10;;;;;;;;;;;;;;;-142.75;100.00;74956.47;5012884;28;19921;-70
2021/10/21 03:15:35;;;;;;;;;;;;;;;-142.75;100.00;74952.53;5013634;28;19952;-70
2021/10/21 03:18:00;;;;;;;;;;;;;;;-142.75;100.00;74944.66;5014001;28;20020;-70
2021/10/21 03:20:26;;;;;;;;;;;;;;;-142.75;100.00;74934.81;5000474;28;19991;-70
2021/10/21 03:22:51;;;;;;;;;;;;;;;-142.75;100.00;74930.88;5008361;28;19949;-70
2021/10/21 03:25:16;;;;;;;;;;;;;;;-142.75;100.00;74932.84;5013720;28;20382;-69
2021/10/21 03:27:42;;;;;;;;;;;;;;;-142.75;100.00;74934.81;5012496;28;19923;-70
2021/10/21 03:30:08;;;;;;;;;;;;;;;-142.75;100.00;74930.88;5012446;28;19913;-70
2021/10/21 03:32:34;;;;;;;;;;;;;;;-142.75;100.00;74936.78;5013695;28;19917;-70
2021/10/21 03:34:59;;;;;;;;;;;;;;;-142.75;100.00;74921.06;5013473;28;20051;-70
2021/10/21 03:37:24;;;;;;;;;;;;;;;-142.75;100.00;74936.78;5013491;28;20004;-70
2021/10/21 03:39:50;;;;;;;;;;;;;;;-142.75;100.00;74932.84;5013543;28;19917;-70
2021/10/21 03:42:19;;;;;;;;;;;;;;;-142.75;100.00;74944.66;5012343;28;19920;-70
2021/10/21 03:44:44;;;;;;;;;;;;;;;-142.75;100.00;74956.47;5005707;28;19968;-70
2021/10/21 03:47:10;;;;;;;;;;;;;;;-142.75;100.00;74944.66;4992641;28;20367;-70
2021/10/21 03:49:36;;;;;;;;;;;;;;;-142.75;100.00;74928.91;4993842;28;19920;-70
2021/10/21 03:52:01;;;;;;;;;;;;;;;-142.75;100.00;74936.78;4993965;28;20308;-68
2021/10/21 03:54:27;;;;;;;;;;;;;;;-142.75;100.00;74944.66;5011849;28;19913;-72
2021/10/21 03:56:52;;;;;;;;;;;;;;;-142.75;100.00;74952.53;5013638;28;20635;-70
2021/10/21 03:59:17;;;;;;;;;;;;;;;-142.75;100.00;74956.47;5012612;28;20004;-71
2021/10/21 04:01:42;;;;;;;;;;;;;;;-142.75;100.00;74972.22;4993721;28;19918;-70
2021/10/21 04:04:07;;;;;;;;;;;;;;;-142.75;100.00;74970.25;4991941;28;20296;-71
2021/10/21 04:06:33;;;;;;;;;;;;;;;-142.75;100.00;74995.81;4993676;28;19918;-70
2021/10/21 04:08:58;;;;;;;;;;;;;;;-142.75;100.00;75001.72;4993600;28;19918;-72
2021/10/21 04:11:23;;;;;;;;;;;;;;;-142.75;100.00;75001.72;4992312;28;19918;-70
2021/10/21 04:13:49;;;;;;;;;;;;;;;-142.75;100.00;75011.56;4993255;28;21433;-68
2021/10/21 04:16:14;;;;;;;;;;;;;;;-142.75;100.00;75019.44;4993351;28;20276;-69
2021/10/21 04:18:39;;;;;;;;;;;;;;;-142.75;100.00;75033.22;4995540;28;20384;-70
2021/10/21 04:21:04;;;;;;;;;;;;;;;-142.75;100.00;75052.88;5012791;28;19913;-71
2021/10/21 04:23:30;;;;;;;;;;;;;;;-142.75;100.00;75056.81;5012778;28;19920;-70
2021/10/21 04:25:55;;;;;;;;;;;;;;;-142.75;100.00;75106.00;5012500;28;20012;-72
2021/10/21 04:28:20;;;;;;;;;;;;;;;-142.75;100.00;75129.63;5012732;28;19913;-69
2021/10/21 04:30:45;;;;;;;;;;;;;;;-142.75;100.00;75172.91;5012690;28;20024;-69
2021/10/21 04:33:10;;;;;;;;;;;;;;;-142.75;100.00;75180.78;5012617;28;19920;-69
2021/10/21 04:35:36;;;;;;;;;;;;;;;-142.75;100.00;75198.50;5011083;28;19964;-70
2021/10/21 04:38:02;;;;;;;;;;;;;;;-142.75;100.00;75224.09;5011036;28;19924;-70
2021/10/21 04:40:27;;;;;;;;;;;;;;;-142.75;100.00;75241.78;5004405;28;19920;-69
2021/10/21 04:42:52;;;;;;;;;;;;;;;-142.75;100.00;75271.31;5000213;28;19917;-70
2021/10/21 04:45:18;;;;;;;;;;;;;;;-142.75;100.00;75291.00;5002894;28;19920;-67
2021/10/21 04:47:43;;;;;;;;;;;;;;;-142.75;100.00;75302.78;4995882;28;19967;-68
2021/10/21 04:50:08;;;;;;;;;;;;;;;-142.75;100.00;75346.09;5008008;28;20435;-69
2021/10/21 04:52:35;;;;;;;;;;;;;;;-142.75;100.00;75359.88;5012293;28;19967;-69
2021/10/21 04:55:00;;;;;;;;;;;;;;;-142.75;100.00;75377.56;5011987;28;20012;-69
2021/10/21 04:57:25;;;;;;;;;;;;;;;-142.75;100.00;75405.13;5012219;28;20016;-69
2021/10/21 04:59:51;;;;;;;;;;;;;;;-142.75;100.00;75424.81;5012058;28;20338;-69
2021/10/21 05:02:16;;;;;;;;;;;;;;;-142.75;100.00;75438.56;5012169;28;19913;-70
2021/10/21 05:04:41;;;;;;;;;;;;;;;-142.75;100.00;75472.03;5012292;28;19921;-69
2021/10/21 05:07:06;;;;;;;;;;;;;;;-142.75;100.00;75474.00;5010658;28;19913;-70
2021/10/21 05:09:31;;;;;;;;;;;;;;;-142.75;100.00;75499.59;5011966;28;19936;-68
2021/10/21 05:11:57;;;;;;;;;;;;;;;-142.75;100.00;75503.53;5011913;28;19913;-68
2021/10/21 05:14:23;;;;;;;;;;;;;;;-142.75;100.00;75515.31;5011732;28;19960;-69
2021/10/21 05:16:48;;;;;;;;;;;;;;;-142.75;100.00;75523.19;5011755;28;19967;-70
2021/10/21 05:19:13;;;;;;;;;;;;;;;-142.75;100.00;75544.84;5010539;28;19921;-68
2021/10/21 05:21:38;;;;;;;;;;;;;;;-142.75;100.00;75544.84;5011774;28;20296;-71
2021/10/21 05:24:04;;;;;;;;;;;;;;;-142.75;100.00;75548.78;5011466;28;19913;-69
2021/10/21 05:26:29;;;;;;;;;;;;;;;-142.75;100.00;75562.56;5011825;28;19975;-70
2021/10/21 05:28:54;;;;;;;;;;;;;;;-142.75;100.00;75578.31;4993395;28;19921;-70
2021/10/21 05:31:19;;;;;;;;;;;;;;;-142.75;100.00;75594.06;4991209;28;19920;-69
2021/10/21 05:33:44;;;;;;;;;;;;;;;-142.75;100.00;75609.78;4991211;28;19921;-68
2021/10/21 05:36:10;;;;;;;;;;;;;;;-142.75;100.00;75621.59;5005992;28;19914;-70
2021/10/21 05:38:35;;;;;;;;;;;;;;;-142.75;100.00;75635.38;5011477;28;19921;-69
2021/10/21 05:41:00;;;;;;;;;;;;;;;-142.75;100.00;75645.22;5010228;28;20268;-69
2021/10/21 05:43:25;;;;;;;;;;;;;;;-142.75;100.00;75645.22;5010260;28;20291;-69
2021/10/21 05:45:51;;;;;;;;;;;;;;;-142.75;100.00;75660.97;5011064;28;19913;-69
2021/10/21 05:48:16;;;;;;;;;;;;;;;-142.75;100.00;75651.13;5010052;28;19913;-68
2021/10/21 05:50:42;;;;;;;;;;;;;;;-142.75;100.00;75659.00;5010161;28;19921;-69
2021/10/21 05:53:07;;;;;;;;;;;;;;;-142.75;100.00;75651.13;5010078;28;20011;-69
2021/10/21 05:55:32;;;;;;;;;;;;;;;-142.75;100.00;75668.84;4997788;28;19917;-69
2021/10/21 05:57:57;;;;;;;;;;;;;;;-142.75;100.00;75660.97;5000467;28;19917;-69
2021/10/21 06:00:23;;;;;;;;;;;;;;;-142.75;100.00;75651.13;5014955;28;19963;-69
2021/10/21 06:02:48;;;;;;;;;;;;;;;-142.75;100.00;75637.34;5014858;28;19913;-69
2021/10/21 06:05:13;;;;;;;;;;;;;;;-142.75;100.00;75645.22;5014294;28;19920;-69
2021/10/21 06:07:39;;;;;;;;;;;;;;;-142.75;100.00;75647.19;5014320;28;19921;-70
2021/10/21 06:10:04;;;;;;;;;;;;;;;-142.75;100.00;75643.25;5014266;28;19913;-70
2021/10/21 06:12:29;;;;;;;;;;;;;;;-142.75;100.00;75655.06;5014286;28;19913;-68
2021/10/21 06:14:55;;;;;;;;;;;;;;;-142.75;95.31;75657.03;5014300;28;19920;-70
2021/10/21 06:17:20;;;;;;;;;;;;;;;-142.75;94.59;75666.88;5014104;28;19924;-69
2021/10/21 06:19:46;;;;;;;;;;;;;;;-142.75;93.37;75672.78;5012640;28;20490;-69
2021/10/21 06:22:13;;;;;;;;;;;;;;;-142.75;93.87;75676.69;5014273;28;20371;-70
2021/10/21 06:24:38;;;;;;;;;;;;;;;-142.75;93.91;75680.63;5002676;28;20401;-69
2021/10/21 06:27:04;;;;;;;;;;;;;;;-142.75;95.15;75720.00;4993282;28;20037;-69
2021/10/21 06:29:29;;;;;;;;;;;;;;;-142.75;100.00;75743.63;4994443;28;19957;-68
2021/10/21 06:31:54;;;;;;;;;;;;;;;-142.75;100.00;75794.78;4994514;28;19941;-69
2021/10/21 06:34:20;;;;;;;;;;;;;;;-142.75;100.00;75800.69;4994015;28;19933;-70
2021/10/21 06:36:46;;;;;;;;;;;;;;;-142.75;100.00;75802.66;4994154;28;19914;-68
2021/10/21 06:39:11;;;;;;;;;;;;;;;-142.75;100.00;75814.47;4994264;28;20356;-69
2021/10/21 06:41:37;;;;;;;;;;;;;;;-142.75;100.00;75861.69;4994362;28;20008;-69
2021/10/21 06:44:02;;;;;;;;;;;;;;;-142.75;100.00;75861.69;4993958;28;19917;-69
2021/10/21 06:46:27;;;;;;;;;;;;;;;-142.75;100.00;75863.66;4994065;28;20005;-69
2021/10/21 06:48:53;;;;;;;;;;;;;;;-142.75;100.00;75869.56;4993944;28;19914;-70
2021/10/21 06:51:18;;;;;;;;;;;;;;;-142.75;100.00;75873.50;4993827;28;20363;-69
2021/10/21 06:53:44;;;;;;;;;;;;;;;-142.75;100.00;75881.38;4992647;28;19922;-69
2021/10/21 06:56:09;;;;;;;;;;;;;;;-142.75;100.00;75908.94;4994214;28;19937;-69
2021/10/21 06:58:34;;;;;;;;;;;;;;;-142.75;100.00;75905.00;4993859;28;20315;-69
2021/10/21 07:01:00;;;;;;;;;;;;;;;-142.75;100.00;75926.66;4992836;28;19914;-69
2021/10/21 07:03:25;;;;;;;;;;;;;;;-142.75;100.00;75920.75;4992295;28;19956;-66
2021/10/21 07:05:53;;;;;;;;;;;;;;;-142.75;98.07;75942.41;4993647;28;19913;-69
2021/10/21 07:08:20;;;;;;;;;;;;;;;-142.75;95.19;75942.41;5008672;28;19975;-70
2021/10/21 07:10:45;;;;;;;;;;;;;;;-142.75;94.73;75952.25;4997984;28;19921;-68
2021/10/21 07:13:11;;;;;;;;;;;;;;;-142.75;92.99;75962.09;5013144;28;19909;-68
2021/10/21 07:15:37;;;;;;;;;;;;;;;-142.75;93.24;75979.78;5002477;28;19909;-67
2021/10/21 07:18:02;;;;;;;;;;;;;;;-142.75;93.78;75973.88;5008748;28;20659;-68
2021/10/21 07:20:27;;;;;;;;;;;;;;;-142.75;92.60;75969.94;5007934;28;19936;-68
2021/10/21 07:22:52;;;;;;;;;;;;;;;-142.75;89.71;75948.31;5012877;28;19917;-68
2021/10/21 07:25:18;;;;;;;;;;;;;;;-142.75;88.19;75906.97;5012856;28;19921;-69
2021/10/21 07:27:43;;;;;;;;;;;;;;;-142.75;85.14;75869.56;5012915;28;20012;-70
2021/10/21 07:30:09;;;;;;;;;;;;;;;-142.75;83.13;75847.94;5012990;28;19913;-67
2021/10/21 07:32:35;;;;;;;;;;;;;;;-142.75;84.14;75806.59;4994089;28;20335;-67
2021/10/21 07:35:00;;;;;;;;;;;;;;;-142.75;81.39;75771.16;5006813;28;19948;-68
2021/10/21 07:37:25;;;;;;;;;;;;;;;-142.75;80.11;75806.59;5005125;28;20286;-67
2021/10/21 07:39:50;;;;;;;;;;;;;;;-142.75;81.39;75804.63;5007184;28;19916;-67
2021/10/21 07:42:15;;;;;;;;;;;;;;;-142.75;81.87;75786.91;5008240;28;19916;-67
2021/10/21 07:44:41;;;;;;;;;;;;;;;-142.75;83.24;75814.47;4998316;28;20283;-69
2021/10/21 07:47:07;;;;;;;;;;;;;;;-142.75;84.51;75859.72;5003492;28;19996;-68
2021/10/21 07:49:32;;;;;;;;;;;;;;;-142.75;86.92;75885.31;4993968;28;20380;-67
2021/10/21 07:51:58;;;;;;;;;;;;;;;-142.75;92.51;75930.59;4995620;28;19909;-68
2021/10/21 07:54:26;;;;;;;;;;;;;;;-142.75;96.46;75942.41;4995545;28;19917;-70
2021/10/21 07:56:52;;;;;;;;;;;;;;;-142.75;100.00;75999.47;4995859;28;19917;-67
2021/10/21 07:59:17;;;;;;;;;;;;;;;-142.75;100.00;76023.09;5002422;28;20021;-69
2021/10/21 08:01:42;;;;;;;;;;;;;;;-142.75;100.00;76042.78;5001701;28;19959;-68
2021/10/21 08:04:09;;;;;;;;;;;;;;;-142.75;100.00;76066.41;5010924;28;19917;-68
2021/10/21 08:06:34;;;;;;;;;;;;;;;-142.75;100.00;76090.00;4994155;28;19937;-67
2021/10/21 08:09:02;;;;;;;;;;;;;;;-142.75;100.00;76093.94;5002199;28;20379;-67
2021/10/21 08:11:28;;;;;;;;;;;;;;;-142.75;100.00;76117.56;5002942;28;19909;-68
2021/10/21 08:13:53;;;;;;;;;;;;;;;-142.75;100.00;76107.72;4999700;28;19929;-67
2021/10/21 08:16:18;;;;;;;;;;;;;;;-142.75;100.00;76113.63;5002496;28;19913;-69
2021/10/21 08:18:43;;;;;;;;;;;;;;;-142.75;100.00;76129.38;5001381;28;19913;-67
2021/10/21 08:21:08;;;;;;;;;;;;;;;-142.75;100.00;76121.50;5003914;28;19909;-68
2021/10/21 08:23:34;;;;;;;;;;;;;;;-142.75;100.00;76143.16;4997413;28;19916;-68
2021/10/21 08:25:59;;;;;;;;;;;;;;;-142.75;100.00;76145.13;5004742;28;19910;-68
2021/10/21 08:28:24;;;;;;;;;;;;;;;-142.75;100.00;76133.31;5001375;28;19945;-67
2021/10/21 08:30:49;;;;;;;;;;;;;;;-142.75;100.00;76125.44;4997830;28;19916;-68
2021/10/21 08:33:15;;;;;;;;;;;;;;;-142.75;100.00;76109.69;4994637;28;19914;-68
2021/10/21 08:35:41;;;;;;;;;;;;;;;-142.75;100.00;76105.75;4999865;28;20359;-68
2021/10/21 08:38:06;;;;;;;;;;;;;;;-142.75;100.00;76117.56;5005626;28;19914;-68
2021/10/21 08:40:32;;;;;;;;;;;;;;;-142.75;100.00;76099.84;5004904;28;20701;-69
2021/10/21 08:42:58;;;;;;;;;;;;;;;-142.75;100.00;76099.84;5007700;28;20271;-67
2021/10/21 08:45:23;;;;;;;;;;;;;;;-142.75;100.00;76117.56;5000598;28;19918;-68
2021/10/21 08:47:49;;;;;;;;;;;;;;;-142.75;100.00;76125.44;4995147;28;20418;-69
2021/10/21 08:50:15;;;;;;;;;;;;;;;-142.75;100.00;76121.50;4995621;28;19909;-70
2021/10/21 08:52:40;;;;;;;;;;;;;;;-142.75;100.00;76127.41;4986949;28;19921;-69
2021/10/21 08:55:06;;;;;;;;;;;;;;;-142.75;100.00;76145.13;4998484;28;19936;-69
2021/10/21 08:57:32;;;;;;;;;;;;;;;-142.75;100.00;76145.13;5009487;28;20398;-68
2021/10/21 08:59:57;;;;;;;;;;;;;;;-142.75;100.00;76151.03;5003271;28;19921;-68
2021/10/21 09:02:33;;;;;;;;;;;;;;;-142.75;100.00;76141.19;4997086;28;19975;-71
2021/10/21 09:05:47;;;;;;;;;;;;;;;-142.75;100.00;76141.19;4995734;28;20020;-69
2021/10/21 09:08:14;;;;;;;;;;;;;;;-142.75;100.00;76133.31;4974229;28;19941;-69
2021/10/21 09:10:43;;;;;;;;;;;;;;;-142.75;100.00;76135.28;4994327;28;20280;-68
2021/10/21 09:13:16;;;;;;;;;;;;;;;-142.75;100.00;76123.47;4996924;28;19921;-68
2021/10/21 09:15:46;;;;;;;;;;;;;;;-142.75;100.00;76141.19;4996917;28;19937;-68
2021/10/21 09:18:11;;;;;;;;;;;;;;;-142.75;100.00;76133.31;4999620;28;19929;-69
2021/10/21 09:20:41;;;;;;;;;;;;;;;-142.75;100.00;76131.34;5001809;28;20057;-67
2021/10/21 09:23:09;;;;;;;;;;;;;;;-142.75;100.00;76111.66;4994423;28;19963;-69
2021/10/21 09:25:34;;;;;;;;;;;;;;;-142.75;100.00;76109.69;4999900;28;19917;-68
2021/10/21 09:28:02;;;;;;;;;;;;;;;-142.75;100.00;76101.81;4997910;28;20422;-69
2021/10/21 09:30:32;;;;;;;;;;;;;;;-142.75;100.00;76113.63;4997979;28;19928;-69
2021/10/21 09:33:02;;;;;;;;;;;;;;;-142.75;100.00;76113.63;4997813;28;19921;-68
2021/10/21 09:35:27;;;;;;;;;;;;;;;-142.75;100.00;76119.53;5000390;28;20298;-68
2021/10/21 09:37:54;;;;;;;;;;;;;;;-142.75;100.00;76105.75;4999082;28;19926;-69
2021/10/21 09:40:22;;;;;;;;;;;;;;;-142.75;100.00;76111.66;5004590;28;19952;-68
2021/10/21 09:43:15;;;;;;;;;;;;;;;-142.75;100.00;76097.88;5005762;28;20399;-69
2021/10/21 09:45:43;;;;;;;;;;;;;;;-142.75;100.00;76101.81;4990956;28;19914;-66
2021/10/21 09:48:08;;;;;;;;;;;;;;;-142.75;100.00;76097.88;4998936;28;19981;-67
2021/10/21 09:50:37;;;;;;;;;;;;;;;-142.75;100.00;76091.97;5005733;28;19917;-68
2021/10/21 09:53:22;;;;;;;;;;;;;;;-142.75;100.00;76093.94;4994624;28;19956;-68
2021/10/21 09:55:48;;;;;;;;;;;;;;;-142.75;100.00;76107.72;5009045;28;19913;-68
2021/10/21 09:58:16;;;;;;;;;;;;;;;-142.75;100.00;76113.63;4999881;28;20418;-70
2021/10/21 10:00:42;;;;;;;;;;;;;;;-142.75;99.95;76042.78;5008688;28;19917;-68
2021/10/21 10:03:28;;;;;;;;;;;;;;;-142.75;95.05;75967.97;5006362;28;20442;-68
2021/10/21 10:05:54;;;;;;;;;;;;;;;-142.75;91.05;75979.78;4995294;28;19917;-68
2021/10/21 10:08:21;;;;;;;;;;;;;;;-142.75;90.35;75956.19;4989786;28;19953;-68
2021/10/21 10:10:48;;;;;;;;;;;;;;;-142.75;89.05;75881.38;4991072;28;19956;-68
2021/10/21 10:13:15;;;;;;;;;;;;;;;-142.75;84.26;75816.44;5007863;28;19917;-68
2021/10/21 10:15:43;;;;;;;;;;;;;;;-142.75;82.11;75782.97;4996575;28;19920;-67
2021/10/21 10:18:13;;;;;;;;;;;;;;;-142.75;80.44;75816.44;5006463;28;19917;-68
2021/10/21 10:20:38;;;;;;;;;;;;;;;-142.75;79.73;75810.53;4999574;28;19928;-69
2021/10/21 10:23:04;;;;;;;;;;;;;;;-142.75;76.90;75739.69;5000444;28;20367;-68
2021/10/21 10:25:30;;;;;;;;;;;;;;;-142.75;75.71;75782.97;4997381;28;20037;-67
2021/10/21 10:28:06;;;;;;;;;;;;;;;-142.75;76.10;75881.38;5002158;28;19917;-68
2021/10/21 10:30:46;;;;;;;;;;;;;;;-142.75;79.17;75887.28;4998317;28;19956;-68
2021/10/21 10:33:11;;;;;;;;;;;;;;;-142.75;76.37;75781.00;4995080;28;19914;-68
2021/10/21 10:35:39;;;;;;;;;;;;;;;-142.75;74.64;75723.94;4990457;28;19914;-68
2021/10/21 10:38:05;;;;;;;;;;;;;;;-142.75;74.25;75684.56;4997201;28;20422;-68
2021/10/21 10:40:46;;;;;;;;;;;;;;;-142.75;76.97;75710.16;4996034;28;19914;-68
2021/10/21 10:43:16;;;;;;;;;;;;;;;-142.75;80.93;75775.09;4988530;28;19920;-68
2021/10/21 10:45:46;;;;;;;;;;;;;;;-142.75;85.41;75855.81;5012124;28;19991;-68
2021/10/21 10:48:12;;;;;;;;;;;;;;;-142.75;91.24;76030.97;5007124;28;19917;-69
2021/10/21 10:50:43;;;;;;;;;;;;;;;-142.75;100.00;76166.78;5010159;28;19988;-69
2021/10/21 10:53:08;;;;;;;;;;;;;;;-142.75;100.00;76294.72;5009886;28;19913;-69
2021/10/21 10:55:38;;;;;;;;;;;;;;;-142.75;100.00;76340.00;5001302;28;20290;-70
2021/10/21 10:58:04;;;;;;;;;;;;;;;-142.75;100.00;76393.13;5036607;22;19927;-66
2021/10/21 11:00:39;;;;;;;;;;;;;;;-142.75;100.00;76426.59;5036663;28;19916;-65
2021/10/21 11:03:05;;;;;;;;;;;;;;;-142.75;100.00;76454.16;5053941;28;19918;-66
2021/10/21 11:05:42;;;;;;;;;;;;;;;-142.75;100.00;76487.63;5051961;28;20356;-66
2021/10/21 11:08:07;;;;;;;;;;;;;;;-142.75;100.00;76477.78;5039508;28;19913;-66
2021/10/21 11:10:37;;;;;;;;;;;;;;;-142.75;100.00;76493.53;5035326;28;19966;-66
2021/10/21 11:13:16;;;;;;;;;;;;;;;-142.75;100.00;76523.06;5053540;28;19955;-66
2021/10/21 11:15:42;;;;;;;;;;;;;;;-142.75;100.00;76534.84;5053396;28;19920;-66
2021/10/21 11:18:07;;;;;;;;;;;;;;;-142.75;100.00;76507.31;5053455;28;19921;-66
2021/10/21 11:20:32;;;;;;;;;;;;;;;-142.75;100.00;76505.34;5053807;28;19963;-66
2021/10/21 11:22:58;;;;;;;;;;;;;;;-142.75;100.00;76499.44;5053147;28;19920;-67
2021/10/21 11:25:25;;;;;;;;;;;;;;;-142.75;100.00;76483.69;5039886;28;19923;-66
2021/10/21 11:27:52;;;;;;;;;;;;;;;-142.75;100.00;76491.56;5033246;28;19960;-66
2021/10/21 11:30:19;;;;;;;;;;;;;;;-142.75;100.00;76501.41;5033614;28;19931;-65
2021/10/21 11:32:46;;;;;;;;;;;;;;;-142.75;100.00;76503.38;5033368;28;19917;-67
2021/10/21 11:35:16;;;;;;;;;;;;;;;-142.75;100.00;76479.75;5033123;28;19913;-66
2021/10/21 11:37:46;;;;;;;;;;;;;;;-142.75;100.00;76489.59;5032585;28;19966;-67
2021/10/21 11:40:35;;;;;;;;;;;;;;;-142.75;100.00;76485.66;5031666;28;19913;-67
2021/10/21 11:43:02;;;;;;;;;;;;;;;-142.75;100.00;76509.28;5037297;28;20341;-66
2021/10/21 11:45:29;;;;;;;;;;;;;;;-142.75;100.00;76495.50;5052891;28;19916;-67
2021/10/21 11:47:55;;;;;;;;;;;;;;;-142.75;100.00;76479.75;5053021;28;19913;-67
2021/10/21 11:50:28;;;;;;;;;;;;;;;-142.75;100.00;76495.50;5053376;28;20455;-67
2021/10/21 11:52:53;;;;;;;;;;;;;;;-142.75;100.00;76477.78;5053215;28;20480;-67
2021/10/21 11:55:26;;;;;;;;;;;;;;;-142.75;100.00;76495.50;5052800;28;20058;-67
2021/10/21 11:57:52;;;;;;;;;;;;;;;-142.75;100.00;76497.47;5051861;28;19916;-67
2021/10/21 12:00:22;;;;;;;;;;;;;;;-142.75;100.00;76499.44;5034689;28;19912;-67
2021/10/21 12:02:52;;;;;;;;;;;;;;;-142.75;100.00;76495.50;5053478;28;19912;-67
2021/10/21 12:05:22;;;;;;;;;;;;;;;-142.75;100.00;76507.31;5055274;28;19919;-66
2021/10/21 12:07:49;;;;;;;;;;;;;;;-142.75;100.00;76505.34;5053165;28;20282;-67
2021/10/21 12:10:22;;;;;;;;;;;;;;;-142.75;100.00;76485.66;5051309;28;19919;-67
2021/10/21 12:12:48;;;;;;;;;;;;;;;-142.75;100.00;76507.31;5032833;28;19913;-67
2021/10/21 12:15:15;;;;;;;;;;;;;;;-142.75;100.00;76493.53;5032769;28;20279;-67